createdAt,value
2023-03-24T00:02:16.776Z,97280.52
2023-03-24T00:04:50.268Z,97279.18
2023-03-24T00:07:21.001Z,97276.84
2023-03-24T00:09:50.405Z,97271.83
2023-03-24T00:12:19.795Z,97270.73
2023-03-24T00:14:49.192Z,97265.85
2023-03-24T00:17:17.947Z,97268.92
2023-03-24T00:19:47.048Z,97270.27
2023-03-24T00:22:16.867Z,97269.32
2023-03-24T00:24:46.882Z,97269.21
2023-03-24T00:27:18.684Z,97272.98
2023-03-24T00:29:48.868Z,97277.77
2023-03-24T00:32:19.196Z,97278.13
2023-03-24T00:34:49.846Z,97281.09
2023-03-24T00:37:19.695Z,97278.52
2023-03-24T00:39:50.801Z,97276.58
2023-03-24T00:42:21.730Z,97273.84
2023-03-24T00:44:55.609Z,97273.62
2023-03-24T00:47:27.467Z,97268.13
2023-03-24T00:49:58.742Z,97266.91
2023-03-24T00:52:35.372Z,97269.45
2023-03-24T00:55:06.679Z,97268.21
2023-03-24T00:57:38.200Z,97267.61
2023-03-24T01:00:13.760Z,97265.14
2023-03-24T01:02:44.135Z,97262.04
2023-03-24T01:05:15.662Z,97266.19
2023-03-24T01:07:45.710Z,97267.23
2023-03-24T01:10:15.828Z,97266.95
2023-03-24T01:12:45.283Z,97265.70
2023-03-24T01:15:20.821Z,97266.38
2023-03-24T01:17:50.302Z,97262.52
2023-03-24T01:20:20.926Z,97265.30
2023-03-24T01:22:50.877Z,97263.56
2023-03-24T01:25:22.507Z,97265.46
2023-03-24T01:27:53.956Z,97269.79
2023-03-24T01:30:25.215Z,97270.98
2023-03-24T01:32:54.358Z,97270.88
2023-03-24T01:35:24.544Z,97264.08
2023-03-24T01:37:55.585Z,97256.91
2023-03-24T01:40:26.820Z,97257.34
2023-03-24T01:42:58.002Z,97256.54
2023-03-24T01:45:37.292Z,97253.64
2023-03-24T01:48:14.457Z,97250.79
2023-03-24T01:50:48.226Z,97253.51
2023-03-24T01:53:20.130Z,97252.27
2023-03-24T01:55:49.541Z,97251.54
2023-03-24T01:58:23.950Z,97253.30
2023-03-24T02:01:11.331Z,97248.85
2023-03-24T02:04:04.347Z,97248.59
2023-03-24T02:06:35.624Z,97251.30
2023-03-24T02:09:06.481Z,97252.46
2023-03-24T02:11:37.953Z,97261.32
2023-03-24T02:14:10.311Z,97261.08
2023-03-24T02:16:40.807Z,97258.91
2023-03-24T02:19:40.553Z,97268.98
2023-03-24T02:22:20.042Z,97265.56
2023-03-24T02:24:56.688Z,97264.66
2023-03-24T02:27:43.404Z,97271.46
2023-03-24T02:30:24.682Z,97267.76
2023-03-24T02:33:15.791Z,97271.38
2023-03-24T02:35:49.744Z,97269.93
2023-03-24T02:38:38.340Z,97269.27
2023-03-24T02:41:30.953Z,97273.26
2023-03-24T02:44:00.658Z,97268.48
2023-03-24T02:46:41.969Z,97275.56
2023-03-24T02:49:37.224Z,97279.02
2023-03-24T02:52:15.422Z,97281.89
2023-03-24T02:54:50.756Z,97284.73
2023-03-24T02:57:27.966Z,97286.32
2023-03-24T03:00:24.081Z,97283.20
2023-03-24T03:03:24.298Z,97292.14
2023-03-24T03:05:59.457Z,97294.69
2023-03-24T03:08:31.858Z,97295.08
2023-03-24T03:11:02.868Z,97291.27
2023-03-24T03:13:38.026Z,97286.09
2023-03-24T03:16:16.368Z,97290.71
2023-03-24T03:18:52.084Z,97289.42
2023-03-24T03:21:25.149Z,97287.08
2023-03-24T03:24:02.751Z,97286.27
2023-03-24T03:26:33.599Z,97293.92
2023-03-24T03:29:10.405Z,97292.28
2023-03-24T03:31:44.154Z,97294.77
2023-03-24T03:34:23.691Z,97298.09
2023-03-24T03:37:04.664Z,97293.39
2023-03-24T03:39:35.949Z,97293.35
2023-03-24T03:42:07.394Z,97295.05
2023-03-24T03:44:37.180Z,97293.07
2023-03-24T03:47:06.700Z,97289.26
2023-03-24T03:49:42.467Z,97288.34
2023-03-24T03:52:12.043Z,97290.50
2023-03-24T03:54:43.156Z,97287.73
2023-03-24T03:57:13.376Z,97287.11
2023-03-24T04:00:16.524Z,97285.46
2023-03-24T04:02:57.042Z,97290.73
2023-03-24T04:05:32.739Z,97290.33
2023-03-24T04:08:22.617Z,97294.02
2023-03-24T04:10:54.296Z,97296.70
2023-03-24T04:13:27.020Z,97296.42
2023-03-24T04:16:43.419Z,97296.52
2023-03-24T04:19:26.832Z,97293.94
2023-03-24T04:21:58.684Z,97293.94
2023-03-24T04:24:52.338Z,97296.98
2023-03-24T04:27:32.392Z,97296.17
2023-03-24T04:30:16.713Z,97297.89
2023-03-24T04:32:50.774Z,97297.29
2023-03-24T04:35:41.668Z,97296.45
2023-03-24T04:38:26.375Z,97301.23
2023-03-24T04:41:27.713Z,97297.41
2023-03-24T04:44:07.798Z,97298.21
2023-03-24T04:46:43.205Z,97305.30
2023-03-24T04:49:19.982Z,97299.90
2023-03-24T04:51:50.480Z,97304.91
2023-03-24T04:54:27.469Z,97300.86
2023-03-24T04:57:02.461Z,97299.64
2023-03-24T04:59:35.232Z,97303.39
2023-03-24T05:02:06.087Z,97301.77
2023-03-24T05:04:51.626Z,97304.48
2023-03-24T05:07:26.038Z,97303.95
2023-03-24T05:09:58.825Z,97305.08
2023-03-24T05:12:28.038Z,97308.86
2023-03-24T05:15:13.541Z,97314.65
2023-03-24T05:17:43.230Z,97316.19
2023-03-24T05:20:12.538Z,97315.98
2023-03-24T05:22:43.751Z,97318.73
2023-03-24T05:25:13.154Z,97325.03
2023-03-24T05:27:42.366Z,97322.48
2023-03-24T05:30:23.930Z,97319.58
2023-03-24T05:32:56.286Z,97319.97
2023-03-24T05:35:25.724Z,97318.79
2023-03-24T05:37:55.934Z,97318.16
2023-03-24T05:40:24.624Z,97322.59
2023-03-24T05:43:03.542Z,97321.89
2023-03-24T05:45:34.610Z,97321.82
2023-03-24T05:48:04.107Z,97320.23
2023-03-24T05:50:51.939Z,97317.79
2023-03-24T05:53:21.220Z,97314.74
2023-03-24T05:56:19.410Z,97313.60
2023-03-24T05:59:09.086Z,97316.89
2023-03-24T06:01:59.698Z,97316.61
2023-03-24T06:04:35.466Z,97313.95
2023-03-24T06:07:09.386Z,97309.27
2023-03-24T06:09:43.409Z,97307.23
2023-03-24T06:12:14.294Z,97312.58
2023-03-24T06:14:51.160Z,97313.15
2023-03-24T06:17:21.653Z,97312.71
2023-03-24T06:19:52.850Z,97312.32
2023-03-24T06:22:40.880Z,97312.08
2023-03-24T06:25:14.079Z,97311.98
2023-03-24T06:27:48.145Z,97307.16
2023-03-24T06:30:20.976Z,97310.57
2023-03-24T06:32:50.698Z,97309.59
2023-03-24T06:35:20.176Z,97312.16
2023-03-24T06:37:55.124Z,97314.10
2023-03-24T06:40:24.505Z,97315.94
2023-03-24T06:42:58.126Z,97311.71
2023-03-24T06:45:28.172Z,97313.29
2023-03-24T06:47:57.858Z,97309.40
2023-03-24T06:50:33.450Z,97310.39
2023-03-24T06:53:03.906Z,97308.82
2023-03-24T06:55:33.617Z,97308.25
2023-03-24T06:58:02.821Z,97308.19
2023-03-24T07:01:03.774Z,97310.80
2023-03-24T07:03:38.914Z,97310.91
2023-03-24T07:06:23.354Z,97309.70
2023-03-24T07:09:02.214Z,97313.33
2023-03-24T07:11:32.082Z,97312.98
2023-03-24T07:14:01.897Z,97314.33
2023-03-24T07:16:31.658Z,97316.14
2023-03-24T07:19:19.564Z,97314.70
2023-03-24T07:21:52.023Z,97314.31
2023-03-24T07:24:24.095Z,97316.73
2023-03-24T07:27:03.332Z,97317.66
2023-03-24T07:29:32.413Z,97320.50
2023-03-24T07:32:23.748Z,97317.68
2023-03-24T07:34:53.647Z,97318.42
2023-03-24T07:37:22.232Z,97312.10
2023-03-24T07:39:51.329Z,97311.98
2023-03-24T07:42:20.732Z,97312.48
2023-03-24T07:45:13.490Z,97308.98
2023-03-24T07:47:44.257Z,97305.98
2023-03-24T07:50:13.818Z,97303.79
2023-03-24T07:52:44.384Z,97303.89
2023-03-24T07:55:13.894Z,97298.88
2023-03-24T07:58:11.426Z,97301.67
2023-03-24T08:00:43.279Z,97299.27
2023-03-24T08:03:28.473Z,97303.13
2023-03-24T08:06:18.513Z,97301.30
2023-03-24T08:08:52.565Z,97300.46
2023-03-24T08:11:22.076Z,97296.06
2023-03-24T08:13:51.355Z,97294.91
2023-03-24T08:16:21.068Z,97297.65
2023-03-24T08:18:51.283Z,97293.48
2023-03-24T08:21:20.393Z,97294.27
2023-03-24T08:23:49.057Z,97294.09
2023-03-24T08:26:18.380Z,97291.13
2023-03-24T08:28:47.609Z,97286.58
2023-03-24T08:31:16.597Z,97291.24
2023-03-24T08:33:45.468Z,97286.16
2023-03-24T08:36:14.047Z,97288.84
2023-03-24T08:38:43.116Z,97284.30
2023-03-24T08:41:12.116Z,97283.24
2023-03-24T08:43:41.109Z,97279.59
2023-03-24T08:46:11.795Z,97277.79
2023-03-24T08:48:43.499Z,97275.63
2023-03-24T08:51:13.604Z,97273.22
2023-03-24T08:53:43.441Z,97265.63
2023-03-24T08:56:12.220Z,97263.07
2023-03-24T08:58:40.797Z,97262.34
2023-03-24T09:01:10.748Z,97263.05
2023-03-24T09:03:40.302Z,97260.16
2023-03-24T09:06:09.333Z,97262.61
2023-03-24T09:08:38.218Z,97259.86
2023-03-24T09:11:07.590Z,97263.13
2023-03-24T09:13:36.668Z,97256.45
2023-03-24T09:16:06.664Z,97252.03
2023-03-24T09:18:35.296Z,97249.23
2023-03-24T09:21:04.488Z,97247.40
2023-03-24T09:23:32.967Z,97243.77
2023-03-24T09:26:02.379Z,97243.27
2023-03-24T09:28:31.670Z,97241.38
2023-03-24T09:31:02.178Z,97235.84
2023-03-24T09:33:31.606Z,97236.14
2023-03-24T09:36:02.192Z,97236.56
2023-03-24T09:38:31.048Z,97231.48
2023-03-24T09:41:04.133Z,97229.66
2023-03-24T09:43:37.210Z,97227.48
2023-03-24T09:46:10.519Z,97226.72
2023-03-24T09:48:43.274Z,97223.30
2023-03-24T09:51:23.912Z,97217.39
2023-03-24T09:53:52.935Z,97210.14
2023-03-24T09:56:23.163Z,97209.98
2023-03-24T09:59:10.993Z,97204.77
2023-03-24T10:01:40.064Z,97204.11
2023-03-24T10:04:15.610Z,97202.94
2023-03-24T10:06:44.628Z,97200.09
2023-03-24T10:09:13.851Z,97204.84
2023-03-24T10:11:47.427Z,97199.91
2023-03-24T10:14:19.103Z,97201.08
2023-03-24T10:16:55.857Z,97193.84
2023-03-24T10:19:40.000Z,97193.54
2023-03-24T10:22:27.636Z,97193.65
2023-03-24T10:25:16.081Z,97191.98
2023-03-24T10:27:52.111Z,97189.96
2023-03-24T10:30:27.387Z,97183.31
2023-03-24T10:32:56.099Z,97176.53
2023-03-24T10:35:31.267Z,97185.31
2023-03-24T10:38:01.653Z,97182.17
2023-03-24T10:40:33.146Z,97181.31
2023-03-24T10:43:07.303Z,97185.50
2023-03-24T10:45:44.471Z,97180.94
2023-03-24T10:48:15.014Z,97178.84
2023-03-24T10:50:44.933Z,97177.73
2023-03-24T10:53:20.437Z,97173.93
2023-03-24T10:55:49.304Z,97172.45
2023-03-24T10:58:21.342Z,97165.12
2023-03-24T11:00:50.470Z,97161.02
2023-03-24T11:03:28.024Z,97155.04
2023-03-24T11:06:01.004Z,97152.98
2023-03-24T11:08:38.590Z,97156.23
2023-03-24T11:11:15.995Z,97146.08
2023-03-24T11:13:53.993Z,97137.92
2023-03-24T11:16:27.527Z,97136.66
2023-03-24T11:18:57.817Z,97126.40
2023-03-24T11:21:28.647Z,97122.83
2023-03-24T11:24:01.870Z,97118.46
2023-03-24T11:26:38.709Z,97114.48
2023-03-24T11:29:10.369Z,97107.14
2023-03-24T11:31:40.386Z,97109.13
2023-03-24T11:34:20.846Z,97103.70
2023-03-24T11:37:01.331Z,97101.99
2023-03-24T11:39:32.146Z,97099.94
2023-03-24T11:42:02.019Z,97095.30
2023-03-24T11:44:44.053Z,97085.78
2023-03-24T11:47:31.269Z,97085.05
2023-03-24T11:50:12.279Z,97078.64
2023-03-24T11:52:50.058Z,97075.48
2023-03-24T11:55:23.505Z,97071.30
2023-03-24T11:57:56.867Z,97068.98
2023-03-24T12:00:29.460Z,97063.35
2023-03-24T12:03:16.881Z,97061.77
2023-03-24T12:05:51.346Z,97061.75
2023-03-24T12:08:25.507Z,97057.72
2023-03-24T12:10:53.962Z,97053.88
2023-03-24T12:13:40.260Z,97049.96
2023-03-24T12:16:14.752Z,97052.41
2023-03-24T12:18:52.022Z,97052.11
2023-03-24T12:21:38.783Z,97046.46
2023-03-24T12:24:26.000Z,97044.15
2023-03-24T12:26:58.443Z,97045.48
2023-03-24T12:29:37.917Z,97035.30
2023-03-24T12:32:15.911Z,97034.70
2023-03-24T12:35:04.352Z,97031.39
2023-03-24T12:37:32.973Z,97025.52
2023-03-24T12:40:26.548Z,97020.55
2023-03-24T12:43:03.911Z,97015.42
2023-03-24T12:45:32.631Z,97015.08
2023-03-24T12:48:07.478Z,97009.98
2023-03-24T12:50:54.735Z,97005.88
2023-03-24T12:53:31.529Z,97000.90
2023-03-24T12:56:15.776Z,96998.84
2023-03-24T12:58:47.008Z,96994.86
2023-03-24T13:01:38.072Z,96987.02
2023-03-24T13:04:09.679Z,96985.51
2023-03-24T13:06:48.834Z,96984.54
2023-03-24T13:09:27.642Z,96976.12
2023-03-24T13:12:03.484Z,96972.52
2023-03-24T13:14:38.942Z,96972.06
2023-03-24T13:17:14.787Z,96971.76
2023-03-24T13:19:43.788Z,96968.67
2023-03-24T13:22:15.941Z,96967.98
2023-03-24T13:24:45.856Z,96963.04
2023-03-24T13:27:17.111Z,96961.30
2023-03-24T13:29:49.835Z,96954.70
2023-03-24T13:32:25.511Z,96952.59
2023-03-24T13:35:04.281Z,96950.60
2023-03-24T13:37:36.009Z,96946.36
2023-03-24T13:40:27.331Z,96941.98
2023-03-24T13:42:57.146Z,96940.05
2023-03-24T13:45:35.156Z,96935.14
2023-03-24T13:48:04.820Z,96932.85
2023-03-24T13:50:34.682Z,96927.38
2023-03-24T13:53:28.461Z,96925.23
2023-03-24T13:55:57.145Z,96925.36
2023-03-24T13:58:28.631Z,96919.30
2023-03-24T14:01:09.555Z,96919.35
2023-03-24T14:04:07.744Z,96915.55
2023-03-24T14:06:47.680Z,96909.69
2023-03-24T14:09:25.790Z,96915.64
2023-03-24T14:12:04.111Z,96909.31
2023-03-24T14:14:36.464Z,96907.77
2023-03-24T14:17:17.055Z,96898.64
2023-03-24T14:19:58.414Z,96897.19
2023-03-24T14:22:33.244Z,96892.67
2023-03-24T14:25:03.367Z,96889.79
2023-03-24T14:27:38.399Z,96889.25
2023-03-24T14:30:13.545Z,96884.38
2023-03-24T14:32:59.544Z,96878.64
2023-03-24T14:35:34.647Z,96876.56
2023-03-24T14:38:24.578Z,96868.23
2023-03-24T14:40:57.233Z,96868.86
2023-03-24T14:43:47.113Z,96864.86
2023-03-24T14:46:36.897Z,96860.84
2023-03-24T14:49:12.646Z,96861.52
2023-03-24T14:52:00.162Z,96859.02
2023-03-24T14:54:39.404Z,96854.94
2023-03-24T14:57:09.120Z,96849.27
2023-03-24T15:00:02.273Z,96844.79
2023-03-24T15:02:40.108Z,96844.48
2023-03-24T15:05:15.809Z,96841.64
2023-03-24T15:07:45.911Z,96841.53
2023-03-24T15:10:18.492Z,96838.95
2023-03-24T15:12:48.669Z,96839.96
2023-03-24T15:15:19.304Z,96835.81
2023-03-24T15:17:48.810Z,96832.42
2023-03-24T15:20:22.742Z,96831.98
2023-03-24T15:22:55.367Z,96826.77
2023-03-24T15:25:28.485Z,96828.08
2023-03-24T15:27:58.052Z,96823.48
2023-03-24T15:30:26.936Z,96823.74
2023-03-24T15:32:55.595Z,96823.85
2023-03-24T15:35:25.153Z,96820.75
2023-03-24T15:37:57.601Z,96817.91
2023-03-24T15:40:26.529Z,96812.83
2023-03-24T15:42:56.548Z,96813.41
2023-03-24T15:45:31.219Z,96813.25
2023-03-24T15:48:06.057Z,96813.06
2023-03-24T15:50:38.566Z,96808.55
2023-03-24T15:53:19.510Z,96813.65
2023-03-24T15:55:48.729Z,96810.09
2023-03-24T15:58:20.981Z,96807.00
2023-03-24T16:00:53.610Z,96807.91
2023-03-24T16:03:27.000Z,96807.16
2023-03-24T16:05:56.900Z,96807.19
2023-03-24T16:08:29.954Z,96799.73
2023-03-24T16:11:00.253Z,96801.13
2023-03-24T16:13:29.487Z,96798.23
2023-03-24T16:16:00.426Z,96799.17
2023-03-24T16:18:38.947Z,96804.59
2023-03-24T16:21:13.592Z,96804.66
2023-03-24T16:23:45.228Z,96801.67
2023-03-24T16:26:18.721Z,96798.16
2023-03-24T16:28:50.784Z,96795.33
2023-03-24T16:31:27.549Z,96790.53
2023-03-24T16:33:58.017Z,96783.79
2023-03-24T16:36:28.227Z,96782.72
2023-03-24T16:38:58.746Z,96785.75
2023-03-24T16:41:28.162Z,96783.48
2023-03-24T16:43:56.718Z,96778.91
2023-03-24T16:46:25.986Z,96776.04
2023-03-24T16:48:56.247Z,96779.70
2023-03-24T16:51:27.356Z,96782.45
2023-03-24T16:53:56.174Z,96781.31
2023-03-24T16:56:25.163Z,96783.59
2023-03-24T16:58:55.176Z,96781.74
2023-03-24T17:01:30.094Z,96780.05
2023-03-24T17:04:09.875Z,96783.81
2023-03-24T17:06:39.979Z,96782.98
2023-03-24T17:09:10.035Z,96785.54
2023-03-24T17:11:38.680Z,96783.34
2023-03-24T17:14:12.780Z,96783.55
2023-03-24T17:16:43.872Z,96786.59
2023-03-24T17:19:13.444Z,96787.52
2023-03-24T17:21:45.315Z,96784.27
2023-03-24T17:24:14.095Z,96786.90
2023-03-24T17:26:43.126Z,96783.98
2023-03-24T17:29:13.098Z,96781.44
2023-03-24T17:31:43.506Z,96780.39
2023-03-24T17:34:21.502Z,96781.77
2023-03-24T17:36:51.817Z,96779.27
2023-03-24T17:39:21.594Z,96775.16
2023-03-24T17:41:50.455Z,96775.13
2023-03-24T17:44:18.939Z,96777.59
2023-03-24T17:46:47.684Z,96774.28
2023-03-24T17:49:17.126Z,96773.98
2023-03-24T17:51:45.644Z,96776.00
2023-03-24T17:54:16.948Z,96771.55
2023-03-24T17:56:45.665Z,96767.59
2023-03-24T17:59:14.432Z,96767.70
2023-03-24T18:01:42.898Z,96766.27
2023-03-24T18:04:11.613Z,96763.97
2023-03-24T18:06:42.423Z,96764.56
2023-03-24T18:09:11.103Z,96765.50
2023-03-24T18:11:39.997Z,96763.91
2023-03-24T18:14:09.602Z,96766.77
2023-03-24T18:16:39.613Z,96764.31
2023-03-24T18:19:08.512Z,96760.84
2023-03-24T18:21:37.920Z,96761.73
2023-03-24T18:24:07.822Z,96767.33
2023-03-24T18:26:36.614Z,96771.56
2023-03-24T18:29:06.130Z,96776.64
2023-03-24T18:31:34.800Z,96774.05
2023-03-24T18:34:04.311Z,96770.54
2023-03-24T18:36:32.789Z,96774.15
2023-03-24T18:39:04.679Z,96770.99
2023-03-24T18:41:37.288Z,96774.06
2023-03-24T18:44:07.657Z,96775.92
2023-03-24T18:46:37.126Z,96774.87
2023-03-24T18:49:07.589Z,96778.87
2023-03-24T18:51:36.481Z,96776.96
2023-03-24T18:54:06.085Z,96778.21
2023-03-24T18:56:34.808Z,96781.61
2023-03-24T18:59:04.376Z,96784.50
2023-03-24T19:01:33.616Z,96783.66
2023-03-24T19:04:02.770Z,96787.66
2023-03-24T19:06:31.722Z,96792.39
2023-03-24T19:09:00.349Z,96793.43
2023-03-24T19:11:29.159Z,96793.61
2023-03-24T19:13:58.234Z,96791.73
2023-03-24T19:16:27.269Z,96788.73
2023-03-24T19:18:58.162Z,96788.32
2023-03-24T19:21:29.118Z,96783.36
2023-03-24T19:23:57.689Z,96780.23
2023-03-24T19:26:26.684Z,96781.42
2023-03-24T19:28:55.262Z,96782.27
2023-03-24T19:31:24.057Z,96777.63
2023-03-24T19:33:53.861Z,96777.98
2023-03-24T19:36:22.446Z,96776.80
2023-03-24T19:38:51.701Z,96771.91
2023-03-24T19:41:26.578Z,96770.81
2023-03-24T19:43:55.258Z,96769.17
2023-03-24T19:46:24.082Z,96772.09
2023-03-24T19:48:54.068Z,96773.77
2023-03-24T19:51:24.498Z,96778.95
2023-03-24T19:53:53.077Z,96775.63
2023-03-24T19:56:22.174Z,96779.36
2023-03-24T19:58:51.372Z,96780.91
2023-03-24T20:01:21.759Z,96782.09
2023-03-24T20:03:50.339Z,96784.94
2023-03-24T20:06:19.938Z,96782.98
2023-03-24T20:08:48.688Z,96784.50
2023-03-24T20:11:17.460Z,96788.06
2023-03-24T20:13:46.055Z,96787.91
2023-03-24T20:16:14.871Z,96781.36
2023-03-24T20:18:43.423Z,96782.55
2023-03-24T20:21:20.191Z,96783.77
2023-03-24T20:23:49.287Z,96781.73
2023-03-24T20:26:18.586Z,96778.73
2023-03-24T20:28:47.376Z,96776.58
2023-03-24T20:31:16.677Z,96779.92
2023-03-24T20:33:45.258Z,96776.27
2023-03-24T20:36:14.631Z,96774.05
2023-03-24T20:38:43.346Z,96772.10
2023-03-24T20:41:11.948Z,96772.10
2023-03-24T20:43:41.132Z,96770.15
2023-03-24T20:46:10.214Z,96767.30
2023-03-24T20:48:39.005Z,96760.14
2023-03-24T20:51:08.098Z,96755.98
2023-03-24T20:53:37.237Z,96753.73
2023-03-24T20:56:07.479Z,96754.77
2023-03-24T20:58:37.651Z,96752.49
2023-03-24T21:01:10.144Z,96753.81
2023-03-24T21:03:39.149Z,96749.58
2023-03-24T21:06:10.454Z,96747.21
2023-03-24T21:08:39.146Z,96750.77
2023-03-24T21:11:08.748Z,96748.67
2023-03-24T21:13:38.144Z,96744.41
2023-03-24T21:16:08.717Z,96741.14
2023-03-24T21:18:38.403Z,96744.83
2023-03-24T21:21:06.996Z,96747.54
2023-03-24T21:23:39.469Z,96745.64
2023-03-24T21:26:18.385Z,96743.01
2023-03-24T21:28:47.068Z,96747.16
2023-03-24T21:31:24.352Z,96747.17
2023-03-24T21:33:53.449Z,96743.91
2023-03-24T21:36:22.787Z,96741.39
2023-03-24T21:38:54.245Z,96737.61
2023-03-24T21:41:23.394Z,96734.82
2023-03-24T21:43:54.719Z,96732.27
2023-03-24T21:46:26.528Z,96742.20
2023-03-24T21:48:59.789Z,96739.93
2023-03-24T21:51:37.124Z,96741.30
2023-03-24T21:54:06.988Z,96739.00
2023-03-24T21:56:36.074Z,96734.73
2023-03-24T21:59:04.993Z,96734.96
2023-03-24T22:01:36.388Z,96736.80
2023-03-24T22:04:06.370Z,96734.05
2023-03-24T22:06:38.248Z,96733.77
2023-03-24T22:09:07.506Z,96732.95
2023-03-24T22:11:37.112Z,96731.76
2023-03-24T22:14:05.693Z,96728.03
2023-03-24T22:16:34.514Z,96730.25
2023-03-24T22:19:04.290Z,96727.38
2023-03-24T22:21:33.492Z,96728.16
2023-03-24T22:24:02.386Z,96726.87
2023-03-24T22:26:31.572Z,96728.69
2023-03-24T22:29:02.488Z,96727.59
2023-03-24T22:31:31.411Z,96727.76
2023-03-24T22:34:00.810Z,96727.08
2023-03-24T22:36:30.275Z,96729.80
2023-03-24T22:38:58.791Z,96725.63
2023-03-24T22:41:27.999Z,96727.39
2023-03-24T22:43:56.896Z,96723.30
2023-03-24T22:46:25.913Z,96721.52
2023-03-24T22:48:55.067Z,96722.42
2023-03-24T22:51:23.811Z,96717.46
2023-03-24T22:53:53.484Z,96714.49
2023-03-24T22:56:22.877Z,96713.21
2023-03-24T22:58:52.377Z,96711.55
2023-03-24T23:01:21.511Z,96711.66
2023-03-24T23:03:50.890Z,96700.44
2023-03-24T23:06:20.487Z,96699.36
2023-03-24T23:08:50.104Z,96697.16
2023-03-24T23:11:19.398Z,96698.85
2023-03-24T23:13:50.905Z,96695.55
2023-03-24T23:16:20.781Z,96700.60
2023-03-24T23:18:50.662Z,96700.37
2023-03-24T23:21:20.174Z,96698.67
2023-03-24T23:23:49.724Z,96695.46
2023-03-24T23:26:25.504Z,96699.27
2023-03-24T23:28:57.427Z,96698.40
2023-03-24T23:31:27.573Z,96697.55
2023-03-24T23:33:58.456Z,96694.51
2023-03-24T23:36:28.784Z,96693.13
2023-03-24T23:38:58.565Z,96695.45
2023-03-24T23:41:27.904Z,96695.02
2023-03-24T23:43:56.747Z,96688.70
2023-03-24T23:46:26.100Z,96686.48
2023-03-24T23:48:55.708Z,96690.34
2023-03-24T23:51:25.570Z,96686.90
2023-03-24T23:53:55.171Z,96681.59
2023-03-24T23:56:24.514Z,96674.36
2023-03-24T23:58:53.513Z,96675.18
